Logandale, Nevada
Current Conditions -  °F | °C
As of 2:58 PM on Sunday 21 Dec 2014 (Local Time) from KLSV Reporting Station
Clear Clear  
Wind Chill: 55°   Ceiling: Unl
Heat Index: 55°   Visibility: 10mi
Dew Point: 40°   Wind: 1mph
Humidity: 56%   Direction: 70°ENE
Pressure: 30.08"   Gusts: NA
Location:  36.6°N, 114.49°W
Report Text: KLSV 212258Z AUTO 07001KT 10SM CLR 13/04 A3008 RMK AO2 SLP185 T01300043 $
Loading
Personal Weather Stations






























Interactive Weather Map New forecast layout! Learn more

10-Day Weather Forecast

Advertisements
Track Severe Weather on mobile